Sedgwick, AR

12:56 PM CDT on April 18, 2015 (GMT -0500)
Walnut Ridge Regional | | Change Station
CLOSE
Current Station
Airport
Location: Walnut Ridge,
Elevation: 272 ft
Nearby Weather Stations
Active Advisory: Flood Warning

Elev 272 ft 36.12 °N, 90.93 °W | Updated 21 minutes ago

Mostly Cloudy
Mostly Cloudy
73 °F
Feels Like 73 °F
N
9
Wind Variable Wind from SE

Today
High -- | Low -- °F
--% Chance of Precip.
Yesterday
High -- | Low -- °F
Precip. -- in
6:26 AM 7:39 PM
Waning Crescent, 0% visible
Pressure 29.96 in
Visibility 10.0 miles
Clouds Scattered Clouds 2200 ft
Mostly Cloudy 3000 ft
Mostly Cloudy 4100 ft
Dew Point 63 °F
Humidity 69%
Rainfall 0.00 in
Snow Depth Not available.
UV 6 out of 12
Pollen 9.80 out of 12
Air Quality Not available.
Flu Activity Sporadic
METAR KARG 181735Z AUTO 13008KT 10SM SCT022 BKN030 BKN041 23/17 A2996 RMK AO1

More Conditions Fewer Conditions

Pressure 29.96 in
Visibility 10.0 miles
Clouds Scattered Clouds 2200 ft
Mostly Cloudy 3000 ft
Mostly Cloudy 4100 ft
Dew Point 63 °F
Humidity 69%
Rainfall 0.00 in
Snow Depth Not available.
UV 6 out of 12
Pollen 9.80 out of 12
Air Quality Not available.
Flu Activity Sporadic
METAR KARG 181735Z AUTO 13008KT 10SM SCT022 BKN030 BKN041 23/17 A2996 RMK AO1

More Conditions Fewer Conditions

10-Day Weather Forecast

Almanac

Astronomy

Apr. 18, 2015 Rise Set
Actual Time
Civil Twilight
Nautical Twilight
Astronomical Twilight
Moon
Length of Visible Light
Length of Day
Tomorrow will be .
, % of the Moon is Illuminated

Today's Extremes

State Highs State Lows

Community

WunderPhotos

Upload Photos

1,814,470 photos uploaded!

WunderBlogs® & News

Nearby

Air Quality

  Air Quality AQ Index Pollutant
Not available.

Snow Depth

Station Depth Elevation

Earthquake Activity

City Distance Mag. Time & Date
Minimum magnitude displayed is 2.5.

Coastal Water Temperatures

Place Temperature

Stations

Nearby Weather Stations

Station Location Temp. Windchill Dew Point Humidity Wind Precip. Elev Updated Type
                   
Flood Warning
Statement as of 8:58 AM CDT on April 18, 2015

The Flood Warning continues for
the Black River at Black Rock.
* Until Tuesday evening... or until the warning is cancelled.
* At 8:00 am Saturday the stage was 15.4 feet.
* Minor flooding is occurring and minor flooding is forecast.
* Flood stage is 14.0 feet.
* Forecast... the river will continue to fall to below flood stage by
Monday afternoon.




             Fld observed forecast 7 am
location stg stg day time sun Mon Tue Wed Thu

Black River
Black Rock 14 15.4 Sat 08 am 14.6 14.1 13.7 13.3 12.8




Lat... Lon 3570 9140 3591 9125 3612 9115 3610 9101
3588 9110 3564 9128